sensor_id;sensor_type;location;lat;lon;timestamp;P1;durP1;ratioP1;P2;durP2;ratioP2
41480;SDS011;27217;51.220;5.308;2023-04-03T00:02:38;9.93;;;5.55;;
41480;SDS011;27217;51.220;5.308;2023-04-03T00:05:43;12.63;;;5.20;;
41480;SDS011;27217;51.220;5.308;2023-04-03T00:08:49;13.00;;;5.95;;
41480;SDS011;27217;51.220;5.308;2023-04-03T00:11:55;14.77;;;5.10;;
41480;SDS011;27217;51.220;5.308;2023-04-03T00:15:01;10.57;;;5.15;;
41480;SDS011;27217;51.220;5.308;2023-04-03T00:18:07;9.70;;;6.07;;
41480;SDS011;27217;51.220;5.308;2023-04-03T00:21:12;6.90;;;4.90;;
41480;SDS011;27217;51.220;5.308;2023-04-03T00:24:19;11.77;;;5.70;;
41480;SDS011;27217;51.220;5.308;2023-04-03T00:27:30;12.00;;;5.35;;
41480;SDS011;27217;51.220;5.308;2023-04-03T00:30:33;10.35;;;6.07;;
41480;SDS011;27217;51.220;5.308;2023-04-03T00:33:38;16.75;;;5.70;;
41480;SDS011;27217;51.220;5.308;2023-04-03T00:36:47;11.32;;;6.03;;
41480;SDS011;27217;51.220;5.308;2023-04-03T00:39:50;15.02;;;6.50;;
41480;SDS011;27217;51.220;5.308;2023-04-03T00:42:56;8.93;;;5.72;;
41480;SDS011;27217;51.220;5.308;2023-04-03T00:46:04;18.25;;;6.00;;
41480;SDS011;27217;51.220;5.308;2023-04-03T00:49:10;11.43;;;5.78;;
41480;SDS011;27217;51.220;5.308;2023-04-03T00:52:17;13.18;;;5.20;;
41480;SDS011;27217;51.220;5.308;2023-04-03T00:55:22;11.38;;;4.97;;
41480;SDS011;27217;51.220;5.308;2023-04-03T00:58:34;9.38;;;5.93;;
41480;SDS011;27217;51.220;5.308;2023-04-03T01:01:39;11.37;;;5.67;;
41480;SDS011;27217;51.220;5.308;2023-04-03T01:04:45;10.90;;;5.70;;
41480;SDS011;27217;51.220;5.308;2023-04-03T01:07:53;10.85;;;5.57;;
41480;SDS011;27217;51.220;5.308;2023-04-03T01:10:56;11.10;;;5.43;;
41480;SDS011;27217;51.220;5.308;2023-04-03T01:14:02;9.65;;;6.00;;
41480;SDS011;27217;51.220;5.308;2023-04-03T01:25:47;9.57;;;5.22;;
41480;SDS011;27217;51.220;5.308;2023-04-03T01:28:49;12.93;;;5.70;;
41480;SDS011;27217;51.220;5.308;2023-04-03T01:31:58;16.35;;;6.53;;
41480;SDS011;27217;51.220;5.308;2023-04-03T01:35:00;12.63;;;6.15;;
41480;SDS011;27217;51.220;5.308;2023-04-03T01:38:05;13.45;;;6.47;;
41480;SDS011;27217;51.220;5.308;2023-04-03T01:41:11;11.90;;;6.32;;
41480;SDS011;27217;51.220;5.308;2023-04-03T01:44:16;15.48;;;7.22;;
41480;SDS011;27217;51.220;5.308;2023-04-03T01:47:22;14.75;;;7.95;;
41480;SDS011;27217;51.220;5.308;2023-04-03T01:50:27;11.27;;;6.40;;
41480;SDS011;27217;51.220;5.308;2023-04-03T01:53:33;11.15;;;6.78;;
41480;SDS011;27217;51.220;5.308;2023-04-03T01:56:38;11.25;;;6.32;;
41480;SDS011;27217;51.220;5.308;2023-04-03T01:59:44;12.43;;;5.80;;
41480;SDS011;27217;51.220;5.308;2023-04-03T02:02:50;15.13;;;6.45;;
41480;SDS011;27217;51.220;5.308;2023-04-03T02:05:56;11.65;;;6.82;;
41480;SDS011;27217;51.220;5.308;2023-04-03T02:09:02;13.98;;;7.03;;
41480;SDS011;27217;51.220;5.308;2023-04-03T02:12:10;11.43;;;6.80;;
41480;SDS011;27217;51.220;5.308;2023-04-03T02:15:16;18.13;;;7.72;;
41480;SDS011;27217;51.220;5.308;2023-04-03T02:18:25;12.23;;;6.50;;
41480;SDS011;27217;51.220;5.308;2023-04-03T02:21:30;15.75;;;7.30;;
41480;SDS011;27217;51.220;5.308;2023-04-03T02:24:36;10.68;;;7.15;;
41480;SDS011;27217;51.220;5.308;2023-04-03T02:27:42;12.57;;;7.18;;
41480;SDS011;27217;51.220;5.308;2023-04-03T02:30:48;15.30;;;6.80;;
41480;SDS011;27217;51.220;5.308;2023-04-03T02:33:54;11.55;;;6.82;;
41480;SDS011;27217;51.220;5.308;2023-04-03T02:37:00;10.60;;;7.28;;
41480;SDS011;27217;51.220;5.308;2023-04-03T02:40:06;12.30;;;6.13;;
41480;SDS011;27217;51.220;5.308;2023-04-03T02:43:11;13.85;;;6.93;;
41480;SDS011;27217;51.220;5.308;2023-04-03T02:46:17;10.63;;;6.60;;
41480;SDS011;27217;51.220;5.308;2023-04-03T02:49:22;11.40;;;7.07;;
41480;SDS011;27217;51.220;5.308;2023-04-03T02:52:28;14.80;;;7.68;;
41480;SDS011;27217;51.220;5.308;2023-04-03T02:55:33;11.43;;;6.53;;
41480;SDS011;27217;51.220;5.308;2023-04-03T02:58:39;13.25;;;7.78;;
41480;SDS011;27217;51.220;5.308;2023-04-03T03:01:45;11.80;;;6.47;;
41480;SDS011;27217;51.220;5.308;2023-04-03T03:04:50;12.90;;;7.15;;
41480;SDS011;27217;51.220;5.308;2023-04-03T03:07:56;15.45;;;7.10;;
41480;SDS011;27217;51.220;5.308;2023-04-03T03:11:02;16.88;;;7.75;;
41480;SDS011;27217;51.220;5.308;2023-04-03T03:14:08;9.45;;;6.45;;
41480;SDS011;27217;51.220;5.308;2023-04-03T03:17:13;16.23;;;7.78;;
41480;SDS011;27217;51.220;5.308;2023-04-03T03:20:19;16.05;;;7.10;;
41480;SDS011;27217;51.220;5.308;2023-04-03T03:23:25;18.58;;;7.80;;
41480;SDS011;27217;51.220;5.308;2023-04-03T03:26:30;12.45;;;7.03;;
41480;SDS011;27217;51.220;5.308;2023-04-03T03:29:37;17.58;;;7.85;;
41480;SDS011;27217;51.220;5.308;2023-04-03T03:32:42;17.92;;;7.55;;
41480;SDS011;27217;51.220;5.308;2023-04-03T03:35:48;20.92;;;7.95;;
41480;SDS011;27217;51.220;5.308;2023-04-03T03:38:54;17.42;;;7.75;;
41480;SDS011;27217;51.220;5.308;2023-04-03T03:41:59;21.10;;;8.35;;
41480;SDS011;27217;51.220;5.308;2023-04-03T03:45:05;14.95;;;8.18;;
41480;SDS011;27217;51.220;5.308;2023-04-03T03:48:11;17.63;;;8.63;;
41480;SDS011;27217;51.220;5.308;2023-04-03T03:51:16;12.68;;;7.63;;
41480;SDS011;27217;51.220;5.308;2023-04-03T03:54:22;19.83;;;8.55;;
41480;SDS011;27217;51.220;5.308;2023-04-03T03:57:27;15.30;;;8.55;;
41480;SDS011;27217;51.220;5.308;2023-04-03T04:00:33;18.35;;;8.55;;
41480;SDS011;27217;51.220;5.308;2023-04-03T04:03:39;17.00;;;8.18;;
41480;SDS011;27217;51.220;5.308;2023-04-03T04:06:44;18.30;;;8.15;;
41480;SDS011;27217;51.220;5.308;2023-04-03T04:09:53;17.58;;;8.27;;
41480;SDS011;27217;51.220;5.308;2023-04-03T04:12:58;19.98;;;8.68;;
41480;SDS011;27217;51.220;5.308;2023-04-03T04:16:04;15.93;;;8.73;;
41480;SDS011;27217;51.220;5.308;2023-04-03T04:19:10;18.48;;;9.48;;
41480;SDS011;27217;51.220;5.308;2023-04-03T04:22:15;15.40;;;8.40;;
41480;SDS011;27217;51.220;5.308;2023-04-03T04:25:21;15.27;;;8.00;;
41480;SDS011;27217;51.220;5.308;2023-04-03T04:28:26;13.75;;;8.40;;
41480;SDS011;27217;51.220;5.308;2023-04-03T04:31:32;18.33;;;8.57;;
41480;SDS011;27217;51.220;5.308;2023-04-03T04:34:38;16.40;;;8.07;;
41480;SDS011;27217;51.220;5.308;2023-04-03T04:37:43;17.92;;;9.65;;
41480;SDS011;27217;51.220;5.308;2023-04-03T04:40:49;20.45;;;8.23;;
41480;SDS011;27217;51.220;5.308;2023-04-03T04:43:55;19.83;;;10.00;;
41480;SDS011;27217;51.220;5.308;2023-04-03T04:47:01;24.15;;;8.20;;
41480;SDS011;27217;51.220;5.308;2023-04-03T04:50:07;17.75;;;9.88;;
41480;SDS011;27217;51.220;5.308;2023-04-03T04:53:13;16.73;;;8.32;;
41480;SDS011;27217;51.220;5.308;2023-04-03T04:56:18;14.80;;;8.52;;
41480;SDS011;27217;51.220;5.308;2023-04-03T04:59:25;11.13;;;7.63;;
41480;SDS011;27217;51.220;5.308;2023-04-03T05:02:30;22.45;;;8.00;;
41480;SDS011;27217;51.220;5.308;2023-04-03T05:05:36;16.60;;;8.65;;
41480;SDS011;27217;51.220;5.308;2023-04-03T05:08:44;23.38;;;9.18;;
41480;SDS011;27217;51.220;5.308;2023-04-03T05:11:50;13.07;;;7.72;;
41480;SDS011;27217;51.220;5.308;2023-04-03T05:14:56;26.42;;;8.60;;
41480;SDS011;27217;51.220;5.308;2023-04-03T05:18:01;16.63;;;8.05;;
41480;SDS011;27217;51.220;5.308;2023-04-03T05:21:07;21.08;;;8.02;;
41480;SDS011;27217;51.220;5.308;2023-04-03T05:24:13;15.38;;;9.38;;
41480;SDS011;27217;51.220;5.308;2023-04-03T05:27:18;18.90;;;9.48;;
41480;SDS011;27217;51.220;5.308;2023-04-03T05:30:24;18.08;;;9.07;;
41480;SDS011;27217;51.220;5.308;2023-04-03T05:33:30;14.10;;;8.25;;
41480;SDS011;27217;51.220;5.308;2023-04-03T05:36:35;19.58;;;9.23;;
41480;SDS011;27217;51.220;5.308;2023-04-03T05:39:41;21.60;;;9.07;;
41480;SDS011;27217;51.220;5.308;2023-04-03T05:42:46;25.15;;;8.88;;
41480;SDS011;27217;51.220;5.308;2023-04-03T05:45:52;11.05;;;6.40;;
41480;SDS011;27217;51.220;5.308;2023-04-03T05:49:01;13.05;;;7.13;;
41480;SDS011;27217;51.220;5.308;2023-04-03T05:52:10;16.92;;;7.25;;
41480;SDS011;27217;51.220;5.308;2023-04-03T05:55:11;15.55;;;6.47;;
41480;SDS011;27217;51.220;5.308;2023-04-03T05:58:18;11.70;;;5.90;;
41480;SDS011;27217;51.220;5.308;2023-04-03T06:01:24;13.57;;;6.45;;
41480;SDS011;27217;51.220;5.308;2023-04-03T06:04:30;17.17;;;5.65;;
41480;SDS011;27217;51.220;5.308;2023-04-03T06:07:37;8.02;;;5.40;;
41480;SDS011;27217;51.220;5.308;2023-04-03T06:10:43;9.02;;;4.85;;
41480;SDS011;27217;51.220;5.308;2023-04-03T06:13:48;8.35;;;3.65;;
41480;SDS011;27217;51.220;5.308;2023-04-03T06:16:54;17.35;;;4.90;;
41480;SDS011;27217;51.220;5.308;2023-04-03T06:19:59;6.60;;;3.60;;
41480;SDS011;27217;51.220;5.308;2023-04-03T06:23:05;8.98;;;4.30;;
41480;SDS011;27217;51.220;5.308;2023-04-03T06:26:11;12.80;;;4.35;;
41480;SDS011;27217;51.220;5.308;2023-04-03T06:29:17;12.23;;;3.75;;
41480;SDS011;27217;51.220;5.308;2023-04-03T06:32:22;7.40;;;3.53;;
41480;SDS011;27217;51.220;5.308;2023-04-03T06:35:31;9.77;;;3.17;;
41480;SDS011;27217;51.220;5.308;2023-04-03T06:38:40;11.65;;;4.53;;
41480;SDS011;27217;51.220;5.308;2023-04-03T06:41:43;14.82;;;3.47;;
41480;SDS011;27217;51.220;5.308;2023-04-03T06:44:51;10.60;;;3.53;;
41480;SDS011;27217;51.220;5.308;2023-04-03T06:47:57;11.23;;;3.55;;
41480;SDS011;27217;51.220;5.308;2023-04-03T06:51:03;10.15;;;3.60;;
41480;SDS011;27217;51.220;5.308;2023-04-03T06:54:11;9.10;;;3.63;;
41480;SDS011;27217;51.220;5.308;2023-04-03T06:57:22;7.95;;;3.53;;
41480;SDS011;27217;51.220;5.308;2023-04-03T07:00:28;9.93;;;2.78;;
41480;SDS011;27217;51.220;5.308;2023-04-03T07:03:35;11.18;;;4.43;;
41480;SDS011;27217;51.220;5.308;2023-04-03T07:06:40;8.60;;;3.22;;
41480;SDS011;27217;51.220;5.308;2023-04-03T07:09:46;7.75;;;2.80;;
41480;SDS011;27217;51.220;5.308;2023-04-03T07:12:51;9.57;;;3.17;;
41480;SDS011;27217;51.220;5.308;2023-04-03T07:15:57;8.77;;;3.33;;
41480;SDS011;27217;51.220;5.308;2023-04-03T07:19:03;13.48;;;3.33;;
41480;SDS011;27217;51.220;5.308;2023-04-03T07:22:08;9.43;;;3.38;;
41480;SDS011;27217;51.220;5.308;2023-04-03T07:25:14;11.05;;;2.97;;
41480;SDS011;27217;51.220;5.308;2023-04-03T07:28:21;9.02;;;3.67;;
41480;SDS011;27217;51.220;5.308;2023-04-03T07:31:25;14.30;;;3.25;;
41480;SDS011;27217;51.220;5.308;2023-04-03T07:34:31;10.20;;;3.08;;
41480;SDS011;27217;51.220;5.308;2023-04-03T07:37:37;12.57;;;3.15;;
41480;SDS011;27217;51.220;5.308;2023-04-03T07:40:49;8.73;;;2.72;;
41480;SDS011;27217;51.220;5.308;2023-04-03T07:44:00;7.00;;;3.03;;
41480;SDS011;27217;51.220;5.308;2023-04-03T07:47:06;7.78;;;2.65;;
41480;SDS011;27217;51.220;5.308;2023-04-03T07:50:12;11.55;;;3.25;;
41480;SDS011;27217;51.220;5.308;2023-04-03T07:53:18;11.35;;;2.60;;
41480;SDS011;27217;51.220;5.308;2023-04-03T07:56:23;13.38;;;2.78;;
41480;SDS011;27217;51.220;5.308;2023-04-03T07:59:33;12.15;;;2.67;;
41480;SDS011;27217;51.220;5.308;2023-04-03T08:02:38;7.35;;;2.83;;
41480;SDS011;27217;51.220;5.308;2023-04-03T08:05:45;7.95;;;2.42;;
41480;SDS011;27217;51.220;5.308;2023-04-03T08:08:50;8.70;;;2.35;;
41480;SDS011;27217;51.220;5.308;2023-04-03T08:11:56;6.85;;;2.67;;
41480;SDS011;27217;51.220;5.308;2023-04-03T08:15:02;8.25;;;2.60;;
41480;SDS011;27217;51.220;5.308;2023-04-03T08:18:07;13.63;;;2.60;;
41480;SDS011;27217;51.220;5.308;2023-04-03T08:21:13;6.30;;;2.75;;
41480;SDS011;27217;51.220;5.308;2023-04-03T08:24:18;6.57;;;2.20;;
41480;SDS011;27217;51.220;5.308;2023-04-03T08:27:24;7.60;;;2.00;;
41480;SDS011;27217;51.220;5.308;2023-04-03T08:30:29;8.40;;;3.00;;
41480;SDS011;27217;51.220;5.308;2023-04-03T08:33:36;10.95;;;2.53;;
41480;SDS011;27217;51.220;5.308;2023-04-03T08:36:41;13.85;;;3.33;;
41480;SDS011;27217;51.220;5.308;2023-04-03T08:39:46;8.38;;;2.08;;
41480;SDS011;27217;51.220;5.308;2023-04-03T08:45:50;8.55;;;2.10;;
41480;SDS011;27217;51.220;5.308;2023-04-03T08:48:56;9.27;;;2.85;;
41480;SDS011;27217;51.220;5.308;2023-04-03T08:52:19;10.10;;;2.08;;
41480;SDS011;27217;51.220;5.308;2023-04-03T08:55:39;5.45;;;2.00;;
41480;SDS011;27217;51.220;5.308;2023-04-03T08:58:54;6.65;;;1.90;;
41480;SDS011;27217;51.220;5.308;2023-04-03T09:01:58;18.33;;;2.83;;
41480;SDS011;27217;51.220;5.308;2023-04-03T09:05:11;4.15;;;2.20;;
41480;SDS011;27217;51.220;5.308;2023-04-03T09:08:47;12.45;;;2.20;;
41480;SDS011;27217;51.220;5.308;2023-04-03T09:11:23;4.40;;;1.92;;
41480;SDS011;27217;51.220;5.308;2023-04-03T09:22:31;5.10;;;1.63;;
41480;SDS011;27217;51.220;5.308;2023-04-03T09:25:35;3.65;;;1.27;;
41480;SDS011;27217;51.220;5.308;2023-04-03T09:28:47;4.43;;;1.53;;
41480;SDS011;27217;51.220;5.308;2023-04-03T09:31:55;3.35;;;1.63;;
41480;SDS011;27217;51.220;5.308;2023-04-03T09:35:04;4.47;;;1.48;;
41480;SDS011;27217;51.220;5.308;2023-04-03T09:40:36;3.88;;;1.48;;
41480;SDS011;27217;51.220;5.308;2023-04-03T09:43:52;5.13;;;1.38;;
41480;SDS011;27217;51.220;5.308;2023-04-03T09:50:20;6.35;;;1.50;;
41480;SDS011;27217;51.220;5.308;2023-04-03T09:53:31;4.68;;;1.73;;
41480;SDS011;27217;51.220;5.308;2023-04-03T09:56:35;3.92;;;1.00;;
41480;SDS011;27217;51.220;5.308;2023-04-03T10:02:32;7.53;;;2.00;;
41480;SDS011;27217;51.220;5.308;2023-04-03T10:05:37;4.55;;;1.45;;
41480;SDS011;27217;51.220;5.308;2023-04-03T10:08:42;3.10;;;0.95;;
41480;SDS011;27217;51.220;5.308;2023-04-03T10:14:26;3.20;;;1.05;;
41480;SDS011;27217;51.220;5.308;2023-04-03T10:17:18;4.05;;;1.20;;
41480;SDS011;27217;51.220;5.308;2023-04-03T10:35:44;2.05;;;0.85;;
41480;SDS011;27217;51.220;5.308;2023-04-03T10:40:58;3.10;;;1.83;;
41480;SDS011;27217;51.220;5.308;2023-04-03T10:57:47;5.28;;;1.08;;
41480;SDS011;27217;51.220;5.308;2023-04-03T11:00:52;6.15;;;1.02;;
41480;SDS011;27217;51.220;5.308;2023-04-03T11:03:59;2.08;;;1.13;;
41480;SDS011;27217;51.220;5.308;2023-04-03T11:10:06;2.28;;;1.00;;
41480;SDS011;27217;51.220;5.308;2023-04-03T11:13:10;4.15;;;1.30;;
41480;SDS011;27217;51.220;5.308;2023-04-03T11:15:56;7.45;;;1.50;;
41480;SDS011;27217;51.220;5.308;2023-04-03T11:21:57;3.15;;;1.35;;
41480;SDS011;27217;51.220;5.308;2023-04-03T11:27:44;5.10;;;1.42;;
41480;SDS011;27217;51.220;5.308;2023-04-03T11:30:52;9.32;;;1.90;;
41480;SDS011;27217;51.220;5.308;2023-04-03T11:34:23;2.90;;;1.42;;
41480;SDS011;27217;51.220;5.308;2023-04-03T11:37:14;3.17;;;1.50;;
41480;SDS011;27217;51.220;5.308;2023-04-03T11:45:32;4.80;;;1.42;;
41480;SDS011;27217;51.220;5.308;2023-04-03T11:51:01;3.42;;;1.13;;
41480;SDS011;27217;51.220;5.308;2023-04-03T11:53:52;3.03;;;1.17;;
41480;SDS011;27217;51.220;5.308;2023-04-03T11:56:59;4.88;;;1.40;;
41480;SDS011;27217;51.220;5.308;2023-04-03T12:01:09;3.47;;;1.27;;
41480;SDS011;27217;51.220;5.308;2023-04-03T12:16:24;1.90;;;0.70;;
41480;SDS011;27217;51.220;5.308;2023-04-03T12:19:38;2.92;;;1.10;;
41480;SDS011;27217;51.220;5.308;2023-04-03T12:23:06;5.15;;;1.10;;
41480;SDS011;27217;51.220;5.308;2023-04-03T12:25:48;1.75;;;1.02;;
41480;SDS011;27217;51.220;5.308;2023-04-03T12:29:20;2.63;;;1.02;;
41480;SDS011;27217;51.220;5.308;2023-04-03T12:40:57;2.20;;;1.00;;
41480;SDS011;27217;51.220;5.308;2023-04-03T12:44:40;4.10;;;1.25;;
41480;SDS011;27217;51.220;5.308;2023-04-03T12:47:16;3.47;;;1.20;;
41480;SDS011;27217;51.220;5.308;2023-04-03T12:50:31;4.22;;;1.08;;
41480;SDS011;27217;51.220;5.308;2023-04-03T12:53:35;1.50;;;1.20;;
41480;SDS011;27217;51.220;5.308;2023-04-03T12:56:40;3.63;;;1.83;;
41480;SDS011;27217;51.220;5.308;2023-04-03T12:59:41;5.68;;;1.20;;
41480;SDS011;27217;51.220;5.308;2023-04-03T13:02:46;2.22;;;1.10;;
41480;SDS011;27217;51.220;5.308;2023-04-03T13:05:54;2.53;;;0.80;;
41480;SDS011;27217;51.220;5.308;2023-04-03T13:09:14;4.18;;;0.90;;
41480;SDS011;27217;51.220;5.308;2023-04-03T13:12:13;1.45;;;1.05;;
41480;SDS011;27217;51.220;5.308;2023-04-03T13:18:21;2.70;;;1.10;;
41480;SDS011;27217;51.220;5.308;2023-04-03T13:21:13;2.45;;;1.00;;
41480;SDS011;27217;51.220;5.308;2023-04-03T13:24:18;6.38;;;1.20;;
41480;SDS011;27217;51.220;5.308;2023-04-03T13:27:24;2.15;;;1.10;;
41480;SDS011;27217;51.220;5.308;2023-04-03T13:30:30;1.95;;;0.93;;
41480;SDS011;27217;51.220;5.308;2023-04-03T13:33:52;7.93;;;1.40;;
41480;SDS011;27217;51.220;5.308;2023-04-03T13:39:27;4.03;;;1.08;;
41480;SDS011;27217;51.220;5.308;2023-04-03T13:42:29;7.47;;;1.30;;
41480;SDS011;27217;51.220;5.308;2023-04-03T13:45:33;3.10;;;1.10;;
41480;SDS011;27217;51.220;5.308;2023-04-03T13:48:22;3.20;;;1.42;;
41480;SDS011;27217;51.220;5.308;2023-04-03T13:51:28;4.53;;;1.17;;
41480;SDS011;27217;51.220;5.308;2023-04-03T13:54:37;2.15;;;1.20;;
41480;SDS011;27217;51.220;5.308;2023-04-03T14:00:36;1.85;;;1.25;;
41480;SDS011;27217;51.220;5.308;2023-04-03T14:03:41;3.10;;;1.15;;
41480;SDS011;27217;51.220;5.308;2023-04-03T14:06:45;4.03;;;1.05;;
41480;SDS011;27217;51.220;5.308;2023-04-03T14:09:51;4.93;;;1.77;;
41480;SDS011;27217;51.220;5.308;2023-04-03T14:12:57;3.45;;;1.45;;
41480;SDS011;27217;51.220;5.308;2023-04-03T14:16:02;3.35;;;1.60;;
41480;SDS011;27217;51.220;5.308;2023-04-03T14:19:14;2.25;;;0.95;;
41480;SDS011;27217;51.220;5.308;2023-04-03T14:22:16;3.85;;;1.70;;
41480;SDS011;27217;51.220;5.308;2023-04-03T14:25:20;4.18;;;1.73;;
41480;SDS011;27217;51.220;5.308;2023-04-03T14:28:27;3.80;;;1.50;;
41480;SDS011;27217;51.220;5.308;2023-04-03T14:31:33;4.60;;;1.67;;
41480;SDS011;27217;51.220;5.308;2023-04-03T14:34:38;4.53;;;1.92;;
41480;SDS011;27217;51.220;5.308;2023-04-03T14:37:44;2.83;;;1.50;;
41480;SDS011;27217;51.220;5.308;2023-04-03T14:40:50;3.53;;;1.30;;
41480;SDS011;27217;51.220;5.308;2023-04-03T14:43:56;3.08;;;1.63;;
41480;SDS011;27217;51.220;5.308;2023-04-03T14:47:04;3.20;;;1.50;;
